sensor_id;sensor_type;location;lat;lon;timestamp;temperature;humidity
22065;DHT22;11197;53.110;8.468;2022-12-18T00:01:05;-4.30;99.90
22065;DHT22;11197;53.110;8.468;2022-12-18T00:03:38;-4.30;99.90
22065;DHT22;11197;53.110;8.468;2022-12-18T00:06:04;-4.30;99.90
22065;DHT22;11197;53.110;8.468;2022-12-18T00:08:30;-4.30;99.90
22065;DHT22;11197;53.110;8.468;2022-12-18T00:10:55;-4.30;99.90
22065;DHT22;11197;53.110;8.468;2022-12-18T00:13:28;-4.30;99.90
22065;DHT22;11197;53.110;8.468;2022-12-18T00:15:54;-4.30;99.90
22065;DHT22;11197;53.110;8.468;2022-12-18T00:18:20;-4.40;99.90
22065;DHT22;11197;53.110;8.468;2022-12-18T00:20:46;-4.40;99.90
22065;DHT22;11197;53.110;8.468;2022-12-18T00:23:11;-4.30;99.90
22065;DHT22;11197;53.110;8.468;2022-12-18T00:25:37;-4.40;99.90
22065;DHT22;11197;53.110;8.468;2022-12-18T00:28:04;-4.40;99.90
22065;DHT22;11197;53.110;8.468;2022-12-18T00:30:30;-4.30;99.90
22065;DHT22;11197;53.110;8.468;2022-12-18T00:32:56;-4.40;99.90
22065;DHT22;11197;53.110;8.468;2022-12-18T00:35:25;-4.40;99.90
22065;DHT22;11197;53.110;8.468;2022-12-18T00:37:52;-4.40;99.90
22065;DHT22;11197;53.110;8.468;2022-12-18T00:40:17;-4.40;99.90
22065;DHT22;11197;53.110;8.468;2022-12-18T00:42:43;-4.40;99.90
22065;DHT22;11197;53.110;8.468;2022-12-18T00:45:26;-4.40;99.90
22065;DHT22;11197;53.110;8.468;2022-12-18T00:47:52;-4.50;99.90
22065;DHT22;11197;53.110;8.468;2022-12-18T00:50:18;-4.50;99.90
22065;DHT22;11197;53.110;8.468;2022-12-18T00:52:44;-4.40;99.90
22065;DHT22;11197;53.110;8.468;2022-12-18T00:55:10;-4.50;99.90
22065;DHT22;11197;53.110;8.468;2022-12-18T00:57:36;-4.40;99.90
22065;DHT22;11197;53.110;8.468;2022-12-18T01:00:05;-4.50;99.90
22065;DHT22;11197;53.110;8.468;2022-12-18T01:02:31;-4.50;99.90
22065;DHT22;11197;53.110;8.468;2022-12-18T01:04:57;-4.50;99.90
22065;DHT22;11197;53.110;8.468;2022-12-18T01:07:23;-4.50;99.90
22065;DHT22;11197;53.110;8.468;2022-12-18T01:09:49;-4.50;99.90
22065;DHT22;11197;53.110;8.468;2022-12-18T01:12:15;-4.50;99.90
22065;DHT22;11197;53.110;8.468;2022-12-18T01:14:41;-4.50;99.90
22065;DHT22;11197;53.110;8.468;2022-12-18T01:17:07;-4.50;99.90
22065;DHT22;11197;53.110;8.468;2022-12-18T01:19:33;-4.50;99.90
22065;DHT22;11197;53.110;8.468;2022-12-18T01:21:59;-4.50;99.90
22065;DHT22;11197;53.110;8.468;2022-12-18T01:24:25;-4.50;99.90
22065;DHT22;11197;53.110;8.468;2022-12-18T01:26:50;-4.60;99.90
22065;DHT22;11197;53.110;8.468;2022-12-18T01:29:16;-4.60;99.90
22065;DHT22;11197;53.110;8.468;2022-12-18T01:31:44;-4.60;99.90
22065;DHT22;11197;53.110;8.468;2022-12-18T01:34:10;-4.60;99.90
22065;DHT22;11197;53.110;8.468;2022-12-18T01:36:38;-4.60;99.90
22065;DHT22;11197;53.110;8.468;2022-12-18T01:39:08;-4.60;99.90
22065;DHT22;11197;53.110;8.468;2022-12-18T01:41:35;-4.60;99.90
22065;DHT22;11197;53.110;8.468;2022-12-18T01:47:44;-4.70;99.90
22065;DHT22;11197;53.110;8.468;2022-12-18T01:52:44;-4.70;99.90
22065;DHT22;11197;53.110;8.468;2022-12-18T01:55:11;-4.70;99.90
22065;DHT22;11197;53.110;8.468;2022-12-18T01:57:38;-4.70;99.90
22065;DHT22;11197;53.110;8.468;2022-12-18T02:00:09;-4.70;99.90
22065;DHT22;11197;53.110;8.468;2022-12-18T02:02:41;-4.70;99.90
22065;DHT22;11197;53.110;8.468;2022-12-18T02:05:07;-4.70;99.90
22065;DHT22;11197;53.110;8.468;2022-12-18T02:18:32;-4.70;99.90
22065;DHT22;11197;53.110;8.468;2022-12-18T02:27:06;-4.80;99.90
22065;DHT22;11197;53.110;8.468;2022-12-18T02:32:14;-4.80;99.90
22065;DHT22;11197;53.110;8.468;2022-12-18T02:34:41;-4.80;99.90
22065;DHT22;11197;53.110;8.468;2022-12-18T02:37:15;-4.80;99.90
22065;DHT22;11197;53.110;8.468;2022-12-18T02:39:45;-4.80;99.90
22065;DHT22;11197;53.110;8.468;2022-12-18T02:42:13;-4.80;99.90
22065;DHT22;11197;53.110;8.468;2022-12-18T02:44:50;-4.80;99.90
22065;DHT22;11197;53.110;8.468;2022-12-18T02:47:22;-4.80;99.90
22065;DHT22;11197;53.110;8.468;2022-12-18T02:50:24;-4.80;99.90
22065;DHT22;11197;53.110;8.468;2022-12-18T03:06:55;-5.00;99.90
22065;DHT22;11197;53.110;8.468;2022-12-18T03:09:39;-5.00;99.90
22065;DHT22;11197;53.110;8.468;2022-12-18T03:12:19;-5.00;99.90
22065;DHT22;11197;53.110;8.468;2022-12-18T03:15:03;-5.10;99.90
22065;DHT22;11197;53.110;8.468;2022-12-18T03:17:32;-5.10;99.90
22065;DHT22;11197;53.110;8.468;2022-12-18T03:20:04;-5.10;99.90
22065;DHT22;11197;53.110;8.468;2022-12-18T03:22:33;-5.10;99.90
22065;DHT22;11197;53.110;8.468;2022-12-18T03:25:02;-5.10;99.90
22065;DHT22;11197;53.110;8.468;2022-12-18T03:27:31;-5.20;99.90
22065;DHT22;11197;53.110;8.468;2022-12-18T03:30:08;-5.20;99.90
22065;DHT22;11197;53.110;8.468;2022-12-18T03:35:33;-5.20;99.90
22065;DHT22;11197;53.110;8.468;2022-12-18T03:38:00;-5.30;99.90
22065;DHT22;11197;53.110;8.468;2022-12-18T03:40:38;-5.30;99.90
22065;DHT22;11197;53.110;8.468;2022-12-18T03:46:08;-5.30;99.90
22065;DHT22;11197;53.110;8.468;2022-12-18T03:48:56;-5.40;99.90
22065;DHT22;11197;53.110;8.468;2022-12-18T03:51:35;-5.40;99.90
22065;DHT22;11197;53.110;8.468;2022-12-18T03:54:04;-5.40;99.90
22065;DHT22;11197;53.110;8.468;2022-12-18T03:56:41;-5.40;99.90
22065;DHT22;11197;53.110;8.468;2022-12-18T03:59:10;-5.40;99.90
22065;DHT22;11197;53.110;8.468;2022-12-18T04:01:42;-5.50;99.90
22065;DHT22;11197;53.110;8.468;2022-12-18T04:04:13;-5.50;99.90
22065;DHT22;11197;53.110;8.468;2022-12-18T04:06:41;-5.50;99.90
22065;DHT22;11197;53.110;8.468;2022-12-18T04:09:10;-5.60;99.90
22065;DHT22;11197;53.110;8.468;2022-12-18T04:11:41;-5.60;99.90
22065;DHT22;11197;53.110;8.468;2022-12-18T04:14:10;-5.50;99.90
22065;DHT22;11197;53.110;8.468;2022-12-18T04:16:36;-5.60;99.90
22065;DHT22;11197;53.110;8.468;2022-12-18T04:19:04;-5.60;99.90
22065;DHT22;11197;53.110;8.468;2022-12-18T04:21:37;-5.60;99.90
22065;DHT22;11197;53.110;8.468;2022-12-18T04:24:03;-5.70;99.90
22065;DHT22;11197;53.110;8.468;2022-12-18T04:26:29;-5.70;99.90
22065;DHT22;11197;53.110;8.468;2022-12-18T04:29:17;-5.70;99.90
22065;DHT22;11197;53.110;8.468;2022-12-18T04:31:43;-5.70;99.90
22065;DHT22;11197;53.110;8.468;2022-12-18T04:34:09;-5.80;99.90
22065;DHT22;11197;53.110;8.468;2022-12-18T04:36:41;-5.70;99.90
22065;DHT22;11197;53.110;8.468;2022-12-18T04:39:07;-5.80;99.90
22065;DHT22;11197;53.110;8.468;2022-12-18T04:41:33;-5.80;99.90
22065;DHT22;11197;53.110;8.468;2022-12-18T04:43:59;-5.80;99.90
22065;DHT22;11197;53.110;8.468;2022-12-18T04:46:25;-5.80;99.90
22065;DHT22;11197;53.110;8.468;2022-12-18T04:48:51;-5.90;99.90
22065;DHT22;11197;53.110;8.468;2022-12-18T04:51:17;-5.90;99.90
22065;DHT22;11197;53.110;8.468;2022-12-18T04:53:43;-5.90;99.90
22065;DHT22;11197;53.110;8.468;2022-12-18T04:56:11;-5.90;99.90
22065;DHT22;11197;53.110;8.468;2022-12-18T04:58:39;-5.90;99.90
22065;DHT22;11197;53.110;8.468;2022-12-18T05:01:05;-5.90;99.90
22065;DHT22;11197;53.110;8.468;2022-12-18T05:03:33;-6.00;99.90
22065;DHT22;11197;53.110;8.468;2022-12-18T05:05:59;-6.00;99.90
22065;DHT22;11197;53.110;8.468;2022-12-18T05:08:26;-6.00;99.90
22065;DHT22;11197;53.110;8.468;2022-12-18T05:10:59;-6.00;99.90
22065;DHT22;11197;53.110;8.468;2022-12-18T05:13:26;-6.00;99.90
22065;DHT22;11197;53.110;8.468;2022-12-18T05:15:52;-6.00;99.90
22065;DHT22;11197;53.110;8.468;2022-12-18T05:18:18;-6.10;99.90
22065;DHT22;11197;53.110;8.468;2022-12-18T05:20:44;-6.10;99.90
22065;DHT22;11197;53.110;8.468;2022-12-18T05:23:10;-6.10;99.90
22065;DHT22;11197;53.110;8.468;2022-12-18T05:25:36;-6.10;99.90
22065;DHT22;11197;53.110;8.468;2022-12-18T05:28:02;-6.10;99.90
22065;DHT22;11197;53.110;8.468;2022-12-18T05:30:28;-6.10;99.90
22065;DHT22;11197;53.110;8.468;2022-12-18T05:32:54;-6.20;99.90
22065;DHT22;11197;53.110;8.468;2022-12-18T05:35:20;-6.10;99.90
22065;DHT22;11197;53.110;8.468;2022-12-18T05:37:46;-6.20;99.90
22065;DHT22;11197;53.110;8.468;2022-12-18T05:40:12;-6.20;99.90
22065;DHT22;11197;53.110;8.468;2022-12-18T05:42:38;-6.20;99.90
22065;DHT22;11197;53.110;8.468;2022-12-18T05:45:04;-6.20;99.90
22065;DHT22;11197;53.110;8.468;2022-12-18T05:47:30;-6.20;99.90
22065;DHT22;11197;53.110;8.468;2022-12-18T05:49:56;-6.20;99.90
22065;DHT22;11197;53.110;8.468;2022-12-18T05:52:22;-6.30;99.90
22065;DHT22;11197;53.110;8.468;2022-12-18T05:54:48;-6.30;99.90
22065;DHT22;11197;53.110;8.468;2022-12-18T05:57:14;-6.30;99.90
22065;DHT22;11197;53.110;8.468;2022-12-18T05:59:40;-6.30;99.90
22065;DHT22;11197;53.110;8.468;2022-12-18T06:02:06;-6.30;99.90
22065;DHT22;11197;53.110;8.468;2022-12-18T06:04:32;-6.30;99.90
22065;DHT22;11197;53.110;8.468;2022-12-18T06:06:58;-6.30;99.90
22065;DHT22;11197;53.110;8.468;2022-12-18T06:09:24;-6.40;99.90
22065;DHT22;11197;53.110;8.468;2022-12-18T06:11:52;-6.40;99.90
22065;DHT22;11197;53.110;8.468;2022-12-18T06:14:17;-6.40;99.90
22065;DHT22;11197;53.110;8.468;2022-12-18T06:16:43;-6.40;99.90
22065;DHT22;11197;53.110;8.468;2022-12-18T06:19:15;-6.40;99.90
22065;DHT22;11197;53.110;8.468;2022-12-18T06:21:41;-6.40;99.90
22065;DHT22;11197;53.110;8.468;2022-12-18T06:24:06;-6.40;99.90
22065;DHT22;11197;53.110;8.468;2022-12-18T06:26:33;-6.50;99.90
22065;DHT22;11197;53.110;8.468;2022-12-18T06:28:58;-6.50;99.90
22065;DHT22;11197;53.110;8.468;2022-12-18T06:31:25;-6.50;99.90
22065;DHT22;11197;53.110;8.468;2022-12-18T06:33:51;-6.40;99.90
22065;DHT22;11197;53.110;8.468;2022-12-18T06:36:17;-6.50;99.90
22065;DHT22;11197;53.110;8.468;2022-12-18T06:38:43;-6.50;99.90
22065;DHT22;11197;53.110;8.468;2022-12-18T06:41:18;-6.50;99.90
22065;DHT22;11197;53.110;8.468;2022-12-18T06:43:45;-6.50;99.90
22065;DHT22;11197;53.110;8.468;2022-12-18T06:46:11;-6.50;99.90
22065;DHT22;11197;53.110;8.468;2022-12-18T06:48:38;-6.50;99.90
22065;DHT22;11197;53.110;8.468;2022-12-18T06:51:04;-6.50;99.90
22065;DHT22;11197;53.110;8.468;2022-12-18T06:53:32;-6.50;99.90
22065;DHT22;11197;53.110;8.468;2022-12-18T06:56:06;-6.50;99.90
22065;DHT22;11197;53.110;8.468;2022-12-18T06:58:32;-6.50;99.90
22065;DHT22;11197;53.110;8.468;2022-12-18T07:01:03;-6.50;99.90
22065;DHT22;11197;53.110;8.468;2022-12-18T07:03:29;-6.50;99.90
22065;DHT22;11197;53.110;8.468;2022-12-18T07:05:55;-6.50;99.90
22065;DHT22;11197;53.110;8.468;2022-12-18T07:08:21;-6.50;99.90
22065;DHT22;11197;53.110;8.468;2022-12-18T07:10:47;-6.50;99.90
22065;DHT22;11197;53.110;8.468;2022-12-18T07:13:15;-6.50;99.90
22065;DHT22;11197;53.110;8.468;2022-12-18T07:15:42;-6.50;99.90
22065;DHT22;11197;53.110;8.468;2022-12-18T07:18:08;-6.50;99.90
22065;DHT22;11197;53.110;8.468;2022-12-18T07:20:34;-6.50;99.90
22065;DHT22;11197;53.110;8.468;2022-12-18T07:23:02;-6.50;99.90
22065;DHT22;11197;53.110;8.468;2022-12-18T07:25:28;-6.50;99.90
22065;DHT22;11197;53.110;8.468;2022-12-18T07:27:54;-6.50;99.90
22065;DHT22;11197;53.110;8.468;2022-12-18T07:30:20;-6.50;99.90
22065;DHT22;11197;53.110;8.468;2022-12-18T07:32:46;-6.50;99.90
22065;DHT22;11197;53.110;8.468;2022-12-18T07:35:12;-6.50;99.90
22065;DHT22;11197;53.110;8.468;2022-12-18T07:37:38;-6.10;99.90
22065;DHT22;11197;53.110;8.468;2022-12-18T07:40:04;-5.70;99.90
22065;DHT22;11197;53.110;8.468;2022-12-18T07:42:30;-5.60;99.90
22065;DHT22;11197;53.110;8.468;2022-12-18T07:44:57;-5.60;99.90
22065;DHT22;11197;53.110;8.468;2022-12-18T07:47:23;-5.60;99.90
22065;DHT22;11197;53.110;8.468;2022-12-18T07:49:52;-5.70;99.90
22065;DHT22;11197;53.110;8.468;2022-12-18T07:52:18;-5.80;99.90
22065;DHT22;11197;53.110;8.468;2022-12-18T07:54:44;-5.90;99.90
22065;DHT22;11197;53.110;8.468;2022-12-18T07:57:10;-5.90;99.90
22065;DHT22;11197;53.110;8.468;2022-12-18T07:59:36;-5.90;99.90
22065;DHT22;11197;53.110;8.468;2022-12-18T08:02:02;-5.90;99.90
22065;DHT22;11197;53.110;8.468;2022-12-18T08:04:29;-5.90;99.90
22065;DHT22;11197;53.110;8.468;2022-12-18T08:06:54;-5.90;99.90
22065;DHT22;11197;53.110;8.468;2022-12-18T08:09:20;-5.90;99.90
22065;DHT22;11197;53.110;8.468;2022-12-18T08:11:46;-6.00;99.90
22065;DHT22;11197;53.110;8.468;2022-12-18T08:14:12;-6.00;99.90
22065;DHT22;11197;53.110;8.468;2022-12-18T08:16:38;-6.00;99.90
22065;DHT22;11197;53.110;8.468;2022-12-18T08:19:03;-4.90;99.90
22065;DHT22;11197;53.110;8.468;2022-12-18T08:21:31;-2.90;99.90
22065;DHT22;11197;53.110;8.468;2022-12-18T08:24:01;-1.40;99.90
22065;DHT22;11197;53.110;8.468;2022-12-18T08:26:30;-0.70;99.90
22065;DHT22;11197;53.110;8.468;2022-12-18T08:28:57;-0.70;99.90
22065;DHT22;11197;53.110;8.468;2022-12-18T08:31:24;-1.10;99.90
22065;DHT22;11197;53.110;8.468;2022-12-18T08:33:52;-1.50;99.90
22065;DHT22;11197;53.110;8.468;2022-12-18T08:36:22;-2.00;99.90
22065;DHT22;11197;53.110;8.468;2022-12-18T08:38:48;-2.40;99.90
22065;DHT22;11197;53.110;8.468;2022-12-18T08:41:15;-2.90;99.90
22065;DHT22;11197;53.110;8.468;2022-12-18T08:43:41;-3.20;99.90
22065;DHT22;11197;53.110;8.468;2022-12-18T08:46:26;-3.50;99.90
22065;DHT22;11197;53.110;8.468;2022-12-18T08:48:54;-3.80;99.90
22065;DHT22;11197;53.110;8.468;2022-12-18T08:51:20;-4.00;99.90
22065;DHT22;11197;53.110;8.468;2022-12-18T08:53:46;-4.20;99.90
22065;DHT22;11197;53.110;8.468;2022-12-18T08:56:13;-4.30;99.90
22065;DHT22;11197;53.110;8.468;2022-12-18T08:58:40;-4.40;99.90
22065;DHT22;11197;53.110;8.468;2022-12-18T09:01:08;-4.50;99.90
22065;DHT22;11197;53.110;8.468;2022-12-18T09:03:35;-4.60;99.90
22065;DHT22;11197;53.110;8.468;2022-12-18T09:06:01;-4.60;99.90
22065;DHT22;11197;53.110;8.468;2022-12-18T09:08:27;-4.60;99.90
22065;DHT22;11197;53.110;8.468;2022-12-18T09:10:54;-4.70;99.90
22065;DHT22;11197;53.110;8.468;2022-12-18T09:13:21;-4.70;99.90
22065;DHT22;11197;53.110;8.468;2022-12-18T09:15:53;-4.80;99.90
22065;DHT22;11197;53.110;8.468;2022-12-18T09:18:21;-4.80;99.90
22065;DHT22;11197;53.110;8.468;2022-12-18T09:20:48;-4.80;99.90
22065;DHT22;11197;53.110;8.468;2022-12-18T09:23:14;-4.80;99.90
22065;DHT22;11197;53.110;8.468;2022-12-18T09:25:40;-4.80;99.90
22065;DHT22;11197;53.110;8.468;2022-12-18T09:28:13;-4.80;99.90
22065;DHT22;11197;53.110;8.468;2022-12-18T09:30:42;-4.80;99.90
22065;DHT22;11197;53.110;8.468;2022-12-18T09:33:08;-4.80;99.90
22065;DHT22;11197;53.110;8.468;2022-12-18T09:35:38;-4.80;99.90
22065;DHT22;11197;53.110;8.468;2022-12-18T09:38:05;-4.70;99.90
22065;DHT22;11197;53.110;8.468;2022-12-18T09:40:36;-4.70;99.90
22065;DHT22;11197;53.110;8.468;2022-12-18T09:43:06;-4.70;99.90
22065;DHT22;11197;53.110;8.468;2022-12-18T09:45:42;-4.70;99.90
22065;DHT22;11197;53.110;8.468;2022-12-18T09:48:18;-4.60;99.90
22065;DHT22;11197;53.110;8.468;2022-12-18T09:50:46;-4.60;99.90
22065;DHT22;11197;53.110;8.468;2022-12-18T09:53:18;-4.60;99.90
22065;DHT22;11197;53.110;8.468;2022-12-18T09:55:46;-4.60;99.90
22065;DHT22;11197;53.110;8.468;2022-12-18T09:58:33;-4.60;99.90
22065;DHT22;11197;53.110;8.468;2022-12-18T10:01:06;-4.50;99.90
22065;DHT22;11197;53.110;8.468;2022-12-18T10:03:35;-4.50;99.90
22065;DHT22;11197;53.110;8.468;2022-12-18T10:14:25;-4.40;99.90
22065;DHT22;11197;53.110;8.468;2022-12-18T10:28:10;-3.90;99.90
22065;DHT22;11197;53.110;8.468;2022-12-18T10:30:39;-3.80;99.90
22065;DHT22;11197;53.110;8.468;2022-12-18T10:33:05;-3.70;99.90
22065;DHT22;11197;53.110;8.468;2022-12-18T10:35:31;-3.70;99.90
22065;DHT22;11197;53.110;8.468;2022-12-18T10:40:29;-3.70;99.90
22065;DHT22;11197;53.110;8.468;2022-12-18T10:43:23;-3.70;99.90
22065;DHT22;11197;53.110;8.468;2022-12-18T10:46:02;-3.60;99.90
22065;DHT22;11197;53.110;8.468;2022-12-18T10:48:28;-3.60;99.90
22065;DHT22;11197;53.110;8.468;2022-12-18T10:50:55;-3.60;99.90
22065;DHT22;11197;53.110;8.468;2022-12-18T10:53:29;-3.60;99.90
22065;DHT22;11197;53.110;8.468;2022-12-18T10:55:58;-3.60;99.90
22065;DHT22;11197;53.110;8.468;2022-12-18T10:58:37;-3.60;99.90
22065;DHT22;11197;53.110;8.468;2022-12-18T11:03:39;-3.70;99.90
22065;DHT22;11197;53.110;8.468;2022-12-18T11:06:11;-3.60;99.90
22065;DHT22;11197;53.110;8.468;2022-12-18T11:08:38;-3.60;99.90
22065;DHT22;11197;53.110;8.468;2022-12-18T11:11:14;-3.70;99.90
22065;DHT22;11197;53.110;8.468;2022-12-18T11:16:20;-3.60;99.90
22065;DHT22;11197;53.110;8.468;2022-12-18T11:18:46;-3.60;99.90
22065;DHT22;11197;53.110;8.468;2022-12-18T11:21:12;-3.60;99.90
22065;DHT22;11197;53.110;8.468;2022-12-18T11:23:59;-3.50;99.90
22065;DHT22;11197;53.110;8.468;2022-12-18T11:26:34;-1.00;99.90
22065;DHT22;11197;53.110;8.468;2022-12-18T11:29:16;1.10;99.90
22065;DHT22;11197;53.110;8.468;2022-12-18T11:31:42;2.30;99.90
22065;DHT22;11197;53.110;8.468;2022-12-18T11:34:24;2.60;99.90
22065;DHT22;11197;53.110;8.468;2022-12-18T11:36:53;2.20;99.90
22065;DHT22;11197;53.110;8.468;2022-12-18T11:39:39;1.60;99.90
22065;DHT22;11197;53.110;8.468;2022-12-18T11:42:35;0.90;99.90
22065;DHT22;11197;53.110;8.468;2022-12-18T11:47:47;-0.10;99.90
22065;DHT22;11197;53.110;8.468;2022-12-18T11:50:20;-0.40;99.90
22065;DHT22;11197;53.110;8.468;2022-12-18T11:52:48;-0.70;99.90
22065;DHT22;11197;53.110;8.468;2022-12-18T11:55:18;-1.00;99.90
22065;DHT22;11197;53.110;8.468;2022-12-18T12:00:22;-1.40;99.90
22065;DHT22;11197;53.110;8.468;2022-12-18T12:03:20;-1.50;99.90
22065;DHT22;11197;53.110;8.468;2022-12-18T12:05:59;-1.70;99.90
22065;DHT22;11197;53.110;8.468;2022-12-18T12:14:17;-1.90;99.90
22065;DHT22;11197;53.110;8.468;2022-12-18T12:22:38;-1.90;99.90
22065;DHT22;11197;53.110;8.468;2022-12-18T12:25:17;-1.90;99.90
22065;DHT22;11197;53.110;8.468;2022-12-18T12:31:05;-2.00;99.90
22065;DHT22;11197;53.110;8.468;2022-12-18T12:33:53;-2.00;99.90
22065;DHT22;11197;53.110;8.468;2022-12-18T12:39:11;-2.10;99.90
22065;DHT22;11197;53.110;8.468;2022-12-18T12:41:40;-2.20;99.90
22065;DHT22;11197;53.110;8.468;2022-12-18T12:44:37;-2.20;99.90
22065;DHT22;11197;53.110;8.468;2022-12-18T12:47:28;-2.20;99.90
22065;DHT22;11197;53.110;8.468;2022-12-18T12:49:57;-2.20;99.90
22065;DHT22;11197;53.110;8.468;2022-12-18T12:52:35;-2.20;99.90
22065;DHT22;11197;53.110;8.468;2022-12-18T12:55:04;-2.10;99.90
22065;DHT22;11197;53.110;8.468;2022-12-18T12:57:41;-1.80;99.90
22065;DHT22;11197;53.110;8.468;2022-12-18T13:00:09;-1.60;99.90
22065;DHT22;11197;53.110;8.468;2022-12-18T13:02:45;-1.60;99.90
22065;DHT22;11197;53.110;8.468;2022-12-18T13:10:34;-1.80;99.90
22065;DHT22;11197;53.110;8.468;2022-12-18T13:13:13;-1.80;99.90
22065;DHT22;11197;53.110;8.468;2022-12-18T13:18:20;-1.80;99.90
22065;DHT22;11197;53.110;8.468;2022-12-18T13:25:53;-1.70;99.90
22065;DHT22;11197;53.110;8.468;2022-12-18T13:31:14;-1.80;99.90
22065;DHT22;11197;53.110;8.468;2022-12-18T13:33:45;-1.80;99.90
22065;DHT22;11197;53.110;8.468;2022-12-18T13:36:32;-1.80;99.90
22065;DHT22;11197;53.110;8.468;2022-12-18T13:41:41;-1.90;99.90
22065;DHT22;11197;53.110;8.468;2022-12-18T13:44:38;-1.90;99.90
22065;DHT22;11197;53.110;8.468;2022-12-18T13:47:32;-1.90;99.90
22065;DHT22;11197;53.110;8.468;2022-12-18T13:49:59;-2.00;99.90
22065;DHT22;11197;53.110;8.468;2022-12-18T13:52:33;-2.00;99.90
22065;DHT22;11197;53.110;8.468;2022-12-18T13:55:03;-2.00;99.90
22065;DHT22;11197;53.110;8.468;2022-12-18T13:57:36;-2.00;99.90
22065;DHT22;11197;53.110;8.468;2022-12-18T14:00:27;-2.00;99.90
22065;DHT22;11197;53.110;8.468;2022-12-18T14:02:55;-2.00;99.90
22065;DHT22;11197;53.110;8.468;2022-12-18T14:05:33;-1.90;99.90
22065;DHT22;11197;53.110;8.468;2022-12-18T14:08:09;-2.00;99.90
22065;DHT22;11197;53.110;8.468;2022-12-18T14:10:43;-1.90;99.90
22065;DHT22;11197;53.110;8.468;2022-12-18T14:13:14;-1.90;99.90
22065;DHT22;11197;53.110;8.468;2022-12-18T14:15:46;-1.90;99.90
22065;DHT22;11197;53.110;8.468;2022-12-18T14:18:26;-1.90;99.90
22065;DHT22;11197;53.110;8.468;2022-12-18T14:20:58;-1.80;99.90
22065;DHT22;11197;53.110;8.468;2022-12-18T14:25:53;-1.80;99.90
22065;DHT22;11197;53.110;8.468;2022-12-18T14:28:19;-1.80;99.90
22065;DHT22;11197;53.110;8.468;2022-12-18T14:30:47;-1.80;99.90
22065;DHT22;11197;53.110;8.468;2022-12-18T14:35:56;-1.80;99.90
22065;DHT22;11197;53.110;8.468;2022-12-18T14:38:30;-1.90;99.90
22065;DHT22;11197;53.110;8.468;2022-12-18T14:43:23;-1.90;99.90
22065;DHT22;11197;53.110;8.468;2022-12-18T14:45:50;-1.90;99.90
22065;DHT22;11197;53.110;8.468;2022-12-18T14:48:17;-1.90;99.90
22065;DHT22;11197;53.110;8.468;2022-12-18T14:50:45;-1.90;99.90
22065;DHT22;11197;53.110;8.468;2022-12-18T14:53:39;-1.80;99.90
22065;DHT22;11197;53.110;8.468;2022-12-18T14:56:19;-1.90;99.90
22065;DHT22;11197;53.110;8.468;2022-12-18T14:58:47;-1.90;99.90
22065;DHT22;11197;53.110;8.468;2022-12-18T15:03:52;-1.90;99.90
22065;DHT22;11197;53.110;8.468;2022-12-18T15:08:52;-1.90;99.90
22065;DHT22;11197;53.110;8.468;2022-12-18T15:14:42;-1.90;99.90
22065;DHT22;11197;53.110;8.468;2022-12-18T15:17:19;-1.90;99.90
22065;DHT22;11197;53.110;8.468;2022-12-18T15:19:46;-1.90;99.90
22065;DHT22;11197;53.110;8.468;2022-12-18T15:22:23;-1.90;99.90
22065;DHT22;11197;53.110;8.468;2022-12-18T15:24:50;-1.90;99.90
22065;DHT22;11197;53.110;8.468;2022-12-18T15:27:33;-1.90;99.90
22065;DHT22;11197;53.110;8.468;2022-12-18T15:32:36;-1.90;99.90
22065;DHT22;11197;53.110;8.468;2022-12-18T15:35:15;-1.90;99.90
22065;DHT22;11197;53.110;8.468;2022-12-18T15:37:42;-1.90;99.90
22065;DHT22;11197;53.110;8.468;2022-12-18T15:40:16;-1.90;99.90
22065;DHT22;11197;53.110;8.468;2022-12-18T15:42:43;-1.80;99.90
22065;DHT22;11197;53.110;8.468;2022-12-18T15:45:28;-1.80;99.90
22065;DHT22;11197;53.110;8.468;2022-12-18T15:47:54;-1.70;99.90
22065;DHT22;11197;53.110;8.468;2022-12-18T15:50:20;-1.60;99.90
22065;DHT22;11197;53.110;8.468;2022-12-18T15:52:48;-1.60;99.90
22065;DHT22;11197;53.110;8.468;2022-12-18T15:55:18;-1.60;99.90
22065;DHT22;11197;53.110;8.468;2022-12-18T15:58:03;-1.60;99.90
22065;DHT22;11197;53.110;8.468;2022-12-18T16:00:29;-1.60;99.90
22065;DHT22;11197;53.110;8.468;2022-12-18T16:02:55;-1.70;99.90
22065;DHT22;11197;53.110;8.468;2022-12-18T16:05:21;-1.70;99.90
22065;DHT22;11197;53.110;8.468;2022-12-18T16:07:48;-1.60;99.90
22065;DHT22;11197;53.110;8.468;2022-12-18T16:10:14;-1.40;99.90
22065;DHT22;11197;53.110;8.468;2022-12-18T16:12:41;-1.30;99.90
22065;DHT22;11197;53.110;8.468;2022-12-18T16:15:10;-1.30;99.90
22065;DHT22;11197;53.110;8.468;2022-12-18T16:17:36;-1.30;99.90
22065;DHT22;11197;53.110;8.468;2022-12-18T16:20:02;-1.30;99.90
22065;DHT22;11197;53.110;8.468;2022-12-18T16:22:29;-1.40;99.90
22065;DHT22;11197;53.110;8.468;2022-12-18T16:24:56;-1.50;99.90
22065;DHT22;11197;53.110;8.468;2022-12-18T16:27:23;-1.50;99.90
22065;DHT22;11197;53.110;8.468;2022-12-18T16:29:49;-1.50;99.90
22065;DHT22;11197;53.110;8.468;2022-12-18T16:32:18;-1.50;99.90
22065;DHT22;11197;53.110;8.468;2022-12-18T16:34:45;-1.60;99.90
22065;DHT22;11197;53.110;8.468;2022-12-18T16:37:13;-1.60;99.90
22065;DHT22;11197;53.110;8.468;2022-12-18T16:39:39;-1.60;99.90
22065;DHT22;11197;53.110;8.468;2022-12-18T16:42:17;-1.60;99.90
22065;DHT22;11197;53.110;8.468;2022-12-18T16:44:45;-1.60;99.90
22065;DHT22;11197;53.110;8.468;2022-12-18T16:47:12;-1.60;99.90
22065;DHT22;11197;53.110;8.468;2022-12-18T16:49:38;-1.60;99.90
22065;DHT22;11197;53.110;8.468;2022-12-18T16:52:05;-1.60;99.90
22065;DHT22;11197;53.110;8.468;2022-12-18T16:54:31;-1.60;99.90
22065;DHT22;11197;53.110;8.468;2022-12-18T16:56:58;-1.60;99.90
22065;DHT22;11197;53.110;8.468;2022-12-18T16:59:25;-1.60;99.90
22065;DHT22;11197;53.110;8.468;2022-12-18T17:01:51;-1.60;99.90
22065;DHT22;11197;53.110;8.468;2022-12-18T17:04:17;-1.60;99.90
22065;DHT22;11197;53.110;8.468;2022-12-18T17:06:44;-1.60;99.90
22065;DHT22;11197;53.110;8.468;2022-12-18T17:09:14;-1.60;99.90
22065;DHT22;11197;53.110;8.468;2022-12-18T17:11:43;-1.60;99.90
22065;DHT22;11197;53.110;8.468;2022-12-18T17:14:18;-1.60;99.90
22065;DHT22;11197;53.110;8.468;2022-12-18T17:16:44;-1.60;99.90
22065;DHT22;11197;53.110;8.468;2022-12-18T17:19:10;-1.60;99.90
22065;DHT22;11197;53.110;8.468;2022-12-18T17:21:36;-1.60;99.90
22065;DHT22;11197;53.110;8.468;2022-12-18T17:24:02;-1.60;99.90
22065;DHT22;11197;53.110;8.468;2022-12-18T17:26:29;-1.60;99.90
22065;DHT22;11197;53.110;8.468;2022-12-18T17:28:56;-1.60;99.90
22065;DHT22;11197;53.110;8.468;2022-12-18T17:31:25;-1.60;99.90
22065;DHT22;11197;53.110;8.468;2022-12-18T17:33:52;-1.60;99.90
22065;DHT22;11197;53.110;8.468;2022-12-18T17:36:18;-1.60;99.90
22065;DHT22;11197;53.110;8.468;2022-12-18T17:38:55;-1.60;99.90
22065;DHT22;11197;53.110;8.468;2022-12-18T17:41:22;-1.60;99.90
22065;DHT22;11197;53.110;8.468;2022-12-18T17:43:53;-1.60;99.90
22065;DHT22;11197;53.110;8.468;2022-12-18T17:46:20;-1.60;99.90
22065;DHT22;11197;53.110;8.468;2022-12-18T17:48:47;-1.60;99.90
22065;DHT22;11197;53.110;8.468;2022-12-18T17:51:16;-1.60;99.90
22065;DHT22;11197;53.110;8.468;2022-12-18T17:53:43;-1.60;99.90
22065;DHT22;11197;53.110;8.468;2022-12-18T17:56:12;-1.50;99.90
22065;DHT22;11197;53.110;8.468;2022-12-18T17:58:38;-1.50;99.90